Airfield :
LOGIN :

Register | Disclaimer

   EN    FR    IT 

 










Legend :    VFR   Marginal VFR   IFR   Intensive IFR   Very Intensive IFR
Visi :
Ceiling :
>= 8 km
>= 3000ft
5 to 8 km
1000 to 3000 ft
1500m to 5 km
500 to 1000 ft
800 to 1500m
200 to 500 ft
< 800m
< 200 ft
Symbols :   Thunderstorms  Fog  Heavy snow  Heavy precipitations  Wind > 20 kt
SIGMETs :     Misc.  Thunderstorms  Icing  Turbulence  Mountain Waves  Volcanic Ashes






- Airport Elevation : 433 ft


LFOC - Chateaudun

CURRENT METAR :
  • 310430Z AUTO 10002KT 7000 BKN029 07/07 Q1021

EXPIRED METARs :
  • 310400Z AUTO 10001KT 9999 BKN029 08/08 Q1022
  • 310330Z AUTO 00000KT 9000 BKN026 BKN031 08/07 Q1022
  • 310300Z AUTO 15004KT 9000 OVC026 07/07 Q1022
  • 310230Z AUTO 14004KT 4300 1600 BR BKN025 06/06 Q1022
  • 310200Z AUTO 00000KT 2200 R28/1100U BCFG BKN026 06/06 Q1023

TAF TAF LFOC
Valid from the 30 at 09:00 until the 31 at 09:00 UTC


300800Z 3009/3109 20012KT 9999 SCT020 BKN035
PROB40
TEMPO 3101/3103 3000 BR
BECMG 3103/3105 0500 FG VV///
BECMG 3107/3109 2000 BR OVC003



MET'MAP, your aeronautical weather chart ! - Copyright ORBIFLY December 2007 - Disclaimer

ORBIFLY MET'MAP TEAM :

Programming & Development : Alexandra Zaïnal
Concept & original design : Baudouin d'Aumeries
Assistance for programming : Marc-Olivier Méhu
Technical & hardware support : Manuel Goepfert

Contact : metmap@orbifly.com




SOURCES & CREDITS :

   NOAA